HECA/CAI METAR and TAF weather

Enter ICAO airport designator
Station Type Date Time Source
HECA METAR 2018/01/16 09:00 UTC NOAA

HECA 160900Z 01008KT 6000 FEW025 16/09 Q1026 NOSIG


Station Type Date Time Source
HECA Decoded METAR 2018/01/16 09:00 UTC NOAA

Cairo Airport, Egypt (HECA) 30-08N 031-24E 74M
Jan 16, 2018 - 04:00 AM EST / 2018.01.16 0900 UTC
Wind: from the N (010 degrees) at 9 MPH (8 KT):0
Visibility: 3 mile(s):0
Sky conditions: mostly clear
Temperature: 60 F (16 C)
Dew Point: 48 F (9 C)
Relative Humidity: 63%
Pressure (altimeter): 30.30 in. Hg (1026 hPa)
ob: HECA 160900Z 01008KT 6000 FEW025 16/09 Q1026 NOSIG
cycle: 9

Station Type Date Time Source
HECA TAF 2018/01/16 08:36 UTC NOAA

TAF TAF
AMD HECA 160800Z 1608/1712 03008KT 6000 NSC
TEMPO 1608/1611 VRB03KT 4000BR
BECMG 1611/1613 35010KT 9999 SCT025


Example: see airport list